Weather - Helsinki Query any day in the database

Current weather  

Weather data for a selected day (2006-01-01 -2020-10-31)
Enter date:     <-     scroll days         ->
day curves
Low temperature°C -4.013:50
High temperature°C -1.023:50
Low wind chill°C -1213:50
Average temperature°C -2.8 
High wind speed (10 min) m/s 12.017:50
Low pressurehPa 958.023:50
High pressurehPa 993.000:50
Low R.H% 7910:20
High R.H% 10023:20
Day weather data as a table
Date Time Temp
°C
Chill
°C
Pressure
hPA
Wind
m/s
Hum
%
Precip
mm
2008-11-23 23:50:00 -1.0  -7.6  958.0 8.0 92 -
2008-11-23 23:20:00 -2.0  -8.5  958.0 7.0 100 -
2008-11-23 22:50:00 -2.0  -8.5  958.0 7.0 92 -
2008-11-23 22:20:00 -2.0  -8.5  958.0 7.0 92 -
2008-11-23 21:50:00 -2.0  -9.3  958.0 9.0 92 -
2008-11-23 21:20:00 -2.0  -9.3  958.0 9.0 92 -
2008-11-23 20:50:00 -3.0  -10.7  958.0 9.0 100 -
2008-11-23 20:20:00 -3.0  -10.7  959.0 9.0 100 -
2008-11-23 19:50:00 -3.0  -10.2  959.0 8.0 92 -
2008-11-23 19:20:00 -3.0  -10.7  960.0 9.0 92 -
2008-11-23 18:50:00 -3.0  -10.7  960.0 9.0 92 -
2008-11-23 18:20:00 -3.0  -11.4  962.0 11.0 92 -
2008-11-23 17:50:00 -3.0  -11.7  963.0 12.0 100 -
2008-11-23 17:20:00 -3.0  -11.4  964.0 11.0 92 -
2008-11-23 16:50:00 -3.0  -10.2  966.0 8.0 92 -
2008-11-23 16:20:00 -3.0  -8.0  967.0 4.0 92 -
2008-11-23 15:50:00 -3.0  -8.0  968.0 4.0 92 -
2008-11-23 15:20:00 -3.0  -9.3  970.0 6.0 92 -
2008-11-23 14:50:00 -3.0  -9.8  971.0 7.0 92 -
2008-11-23 14:20:00 -3.0  -10.2  973.0 8.0 92 -
2008-11-23 13:50:00 -4.0  -12.0  974.0 9.0 92 -
2008-11-23 13:20:00 -3.0  -11.0  975.0 10.0 86 -
2008-11-23 12:50:00 -4.0  -12.0  977.0 9.0 92 -
2008-11-23 12:20:00 -4.0  -12.0  978.0 9.0 92 -
2008-11-23 11:50:00 -3.0  -10.7  979.0 9.0 79 -
2008-11-23 11:20:00 -3.0  -10.7  981.0 9.0 79 -
2008-11-23 10:50:00 -4.0  -12.0  982.0 9.0 85 -
2008-11-23 10:20:00 -3.0  -10.7  983.0 9.0 79 -
2008-11-23 09:50:00 -3.0  -11.0  984.0 10.0 86 -
2008-11-23 09:20:00 -3.0  -10.2  985.0 8.0 86 -
2008-11-23 08:50:00 -3.0  -9.8  986.0 7.0 86 -
2008-11-23 08:20:00 -3.0  -10.2  986.0 8.0 86 -
2008-11-23 07:50:00 -3.0  -10.2  987.0 8.0 86 -
2008-11-23 07:20:00 -2.0  -8.9  987.0 8.0 86 -
2008-11-23 06:50:00 -2.0  -8.5  988.0 7.0 86 -
2008-11-23 06:20:00 -2.0  -8.5  989.0 7.0 86 -
2008-11-23 05:50:00 -2.0  -8.0  989.0 6.0 86 -
2008-11-23 05:20:00 -2.0  -8.5  990.0 7.0 86 -
2008-11-23 04:50:00 -3.0  -9.3  990.0 6.0 92 -
2008-11-23 04:20:00 -3.0  -8.7  991.0 5.0 86 -
2008-11-23 03:50:00 -3.0  -8.7  991.0 5.0 92 -
2008-11-23 03:20:00 -3.0  -9.8  992.0 7.0 92 -
2008-11-23 02:50:00 -3.0  -10.2  992.0 8.0 92 -
2008-11-23 02:20:00 -3.0  -9.8  992.0 7.0 92 -
2008-11-23 01:50:00 -3.0  -10.2  992.0 8.0 92 -
2008-11-23 01:20:00 -3.0  -9.3  992.0 6.0 92 -
2008-11-23 00:50:00 -3.0  -9.8  993.0 7.0 92 -
2008-11-23 00:20:00 -3.0  -9.3  993.0 6.0 92 -
Unit conversions: